Omitama Ibaraki Airport

About
Name: Omitama Ibaraki Airport
Identifier:  IBR/RJAH
Local Time:  21. Sep 17:57 JST
Location
Omitama
  Japan

Statistics
Flights per Day:
15 flights
Distance: 1,008km (626mi)
Flights delayed:
91% (1 flights per day delayed)
Delay Average: 2 minutes
Current Weather
 21 C (Humidity: 73%)
  6kt (11km/h / 6mph) from 60°
  Few clouds at 2,000 feet (609 meter)
  Broken clouds at 8,000 feet (2,438 meter)
  9km (6 mi.)
 METAR RJAH 210800Z 06006KT 9999 FEW020 BKN080 21/16 Q1021

Current Flights

Arrivals
Number Arrival From Airline
Landed 9C8987 12:20  Shanghai  Spring Airlines
Landed BC184 13:15  Kobe  Skymark Airlines
Landed ZE681 16:10  Seoul Eastar Jet
Cancelled BC532 16:45  Naha  Skymark Airlines
Live BC794 18:50  Sapporo  Skymark Airlines
On time BC186 20:00  Kobe  Skymark Airlines
On time BC836 20:30  Fukuoka  Skymark Airlines

Current Delays

Departures
N/A
Arrivals
N/A

Destinations

Top Destinations
Airport Flights
per week
Seats
per week
  Kobe (UKB) 37 6,277 5 896
  Sapporo (CTS) 25 4,006 3 572
  Naha (OKA) 17 2,478 2 354
  Fukuoka (FUK) 13 2,065 1 295
  Shanghai (PVG) 11 - 1 0
  Seoul (ICN) 4 789 0 112
  Taipei (TPE) 3 672 0 96

Airlines & Planes

Top Airlines
Airline Flights
per Day
Seats
per Day
  Skymark Airlines 13 2,118
  Spring Airlines 1 -
Eastar Jet 0 112
  Tigerair Taiwan 0 96
Top Plane Types
Model Flights Seats
Boeing B737-800 14.0/day 2,230/day 2230.9
Airbus A320 Neo 1.7/day - 0
Airbus A320 0.5/day 96/day 96